Time;durP1;ratioP1;P1;durP2;ratioP2;P2;SDS_P1;SDS_P2;PMS_P1;PMS_P2;Temp;Humidity;BMP_temperature;BMP_pressure;BME280_temperature;BME280_humidity;BME280_pressure;Samples;Min_cycle;Max_cycle;Signal;HPM_P1;HPM_P2
2022/02/14 00:00:33;;;;;;;38.85;22.95;;;;;;;-3.59;83.24;98648.95;1784394;80;20905;-66
2022/02/14 00:03:01;;;;;;;39.60;23.65;;;;;;;-3.58;83.45;98647.97;1784516;80;21110;-64
2022/02/14 00:05:28;;;;;;;34.95;21.50;;;;;;;-3.57;83.61;98654.81;1784577;80;21369;-66
2022/02/14 00:07:54;;;;;;;40.03;23.80;;;;;;;-3.56;83.77;98655.13;1784429;80;21449;-64
2022/02/14 00:10:23;;;;;;;38.80;23.20;;;;;;;-3.55;83.89;98657.56;1784456;80;20973;-63
2022/02/14 00:12:51;;;;;;;37.38;24.37;;;;;;;-3.55;83.88;98653.63;1784516;80;21433;-66
2022/02/14 00:15:20;;;;;;;39.75;24.37;;;;;;;-3.58;83.71;98650.59;1784369;80;20968;-66
2022/02/14 00:17:47;;;;;;;36.38;22.17;;;;;;;-3.67;83.66;98649.86;1784355;80;20873;-64
2022/02/14 00:20:14;;;;;;;31.95;20.12;;;;;;;-3.75;83.61;98649.17;1784447;79;20865;-66
2022/02/14 00:25:19;;;;;;;26.17;17.12;;;;;;;-3.91;83.95;98648.07;1784554;80;20865;-66
2022/02/14 00:27:47;;;;;;;29.25;18.45;;;;;;;-3.97;84.24;98643.55;1784413;80;22273;-64
2022/02/14 00:30:13;;;;;;;29.35;18.85;;;;;;;-4.00;84.53;98643.41;1784360;80;21429;-64
2022/02/14 00:32:41;;;;;;;34.92;20.88;;;;;;;-3.98;84.76;98636.71;1784732;80;21421;-64
2022/02/14 00:35:10;;;;;;;39.38;22.62;;;;;;;-3.95;84.97;98637.14;1784658;80;20866;-64
2022/02/14 00:37:37;;;;;;;48.65;31.02;;;;;;;-3.92;84.98;98633.34;1784938;79;21369;-64
2022/02/14 00:40:06;;;;;;;47.60;32.83;;;;;;;-3.93;84.96;98637.77;1784955;80;21105;-67
2022/02/14 00:42:33;;;;;;;42.65;28.73;;;;;;;-3.95;85.05;98638.45;1784494;80;21488;-63
2022/02/14 00:45:00;;;;;;;234.95;104.58;;;;;;;-3.96;84.94;98630.80;1784656;80;20920;-62
2022/02/14 00:47:26;;;;;;;143.45;63.20;;;;;;;-4.03;84.81;98625.48;1784661;80;20846;-66
2022/02/14 00:49:54;;;;;;;165.90;76.70;;;;;;;-4.12;84.90;98629.16;1784949;80;20908;-62
2022/02/14 00:52:21;;;;;;;175.00;82.78;;;;;;;-4.13;84.99;98630.67;1784575;80;21852;-64
2022/02/14 00:54:47;;;;;;;96.17;53.73;;;;;;;-4.17;85.04;98633.63;1784682;80;20893;-66
2022/02/14 00:57:14;;;;;;;55.88;33.20;;;;;;;-4.20;85.12;98625.35;1784738;80;20869;-66
2022/02/14 00:59:42;;;;;;;39.78;23.05;;;;;;;-4.21;85.26;98619.80;1784535;80;20956;-62
2022/02/14 01:02:10;;;;;;;28.40;19.10;;;;;;;-4.21;85.50;98615.38;1784549;80;20956;-64
2022/02/14 01:04:37;;;;;;;26.75;18.40;;;;;;;-4.20;85.70;98608.34;1784855;80;21413;-62
2022/02/14 01:07:03;;;;;;;30.82;21.65;;;;;;;-4.15;86.03;98608.63;1784603;80;20865;-61
2022/02/14 01:09:31;;;;;;;33.50;22.07;;;;;;;-4.09;86.07;98607.88;1784820;80;20913;-64
2022/02/14 01:11:58;;;;;;;34.55;20.60;;;;;;;-4.02;86.20;98609.27;1784640;80;20909;-62
2022/02/14 01:14:24;;;;;;;37.78;22.52;;;;;;;-3.99;86.18;98612.34;1784673;79;20857;-62
2022/02/14 01:16:51;;;;;;;32.00;21.45;;;;;;;-3.99;86.13;98606.29;1784647;79;21128;-66
2022/02/14 01:19:18;;;;;;;31.87;20.62;;;;;;;-4.01;85.99;98606.97;1784696;80;20977;-65
2022/02/14 01:21:45;;;;;;;32.35;22.35;;;;;;;-4.04;85.97;98608.14;1787671;80;20846;-60
2022/02/14 01:24:11;;;;;;;32.55;21.00;;;;;;;-4.08;85.86;98606.89;1787670;80;20917;-63
2022/02/14 01:26:40;;;;;;;37.80;23.20;;;;;;;-4.16;85.77;98610.42;1787687;80;20877;-66
2022/02/14 01:29:07;;;;;;;76.17;47.88;;;;;;;-4.22;85.84;98598.56;1787655;80;21125;-68
2022/02/14 01:31:34;;;;;;;57.15;35.35;;;;;;;-4.30;85.85;98596.86;1787722;80;20925;-66
2022/02/14 01:34:00;;;;;;;47.15;27.00;;;;;;;-4.33;86.11;98601.62;1787780;80;21456;-62
2022/02/14 01:36:27;;;;;;;39.15;23.15;;;;;;;-4.33;86.16;98594.59;1787667;80;20913;-64
2022/02/14 01:38:54;;;;;;;29.75;18.35;;;;;;;-4.31;86.29;98593.91;1787611;80;20833;-63
2022/02/14 01:41:21;;;;;;;31.12;20.37;;;;;;;-4.27;86.30;98593.06;1787623;79;21111;-66
2022/02/14 01:43:47;;;;;;;37.38;20.92;;;;;;;-4.26;86.30;98594.67;1787833;80;21345;-65
2022/02/14 01:46:14;;;;;;;45.63;24.10;;;;;;;-4.28;86.38;98594.86;1787645;80;20912;-66
2022/02/14 01:48:42;;;;;;;60.75;32.88;;;;;;;-4.24;86.46;98590.88;1787651;80;20967;-64
2022/02/14 01:51:09;;;;;;;57.00;32.93;;;;;;;-4.21;86.43;98590.53;1787711;80;20869;-61
2022/02/14 01:53:36;;;;;;;57.10;29.30;;;;;;;-4.18;86.52;98591.97;1787560;80;21031;-64
2022/02/14 01:56:03;;;;;;;28.55;17.73;;;;;;;-4.15;86.60;98583.77;1787620;80;20952;-67
2022/02/14 01:58:30;;;;;;;34.13;20.20;;;;;;;-4.11;86.54;98590.73;1787750;80;21464;-66
2022/02/14 02:00:56;;;;;;;33.45;20.05;;;;;;;-4.10;86.67;98586.65;1787628;80;20901;-64
2022/02/14 02:03:25;;;;;;;45.12;28.60;;;;;;;-4.10;86.74;98591.06;1787621;80;20912;-64
2022/02/14 02:05:55;;;;;;;44.95;29.72;;;;;;;-4.08;86.76;98584.66;1787547;80;21134;-67
2022/02/14 02:08:22;;;;;;;28.40;19.12;;;;;;;-4.09;86.72;98578.28;1787487;79;20941;-67
2022/02/14 02:10:48;;;;;;;27.50;18.15;;;;;;;-4.10;86.68;98575.37;1787673;80;20913;-65
2022/02/14 02:13:16;;;;;;;38.67;23.32;;;;;;;-4.13;86.66;98579.65;1787720;80;21381;-65
2022/02/14 02:15:43;;;;;;;43.58;27.00;;;;;;;-4.18;86.68;98577.09;1787681;79;21354;-64
2022/02/14 02:18:10;;;;;;;33.13;19.73;;;;;;;-4.18;86.63;98573.66;1787637;80;21124;-63
2022/02/14 02:20:36;;;;;;;48.28;29.05;;;;;;;-4.21;86.71;98561.75;1786171;80;20873;-62
2022/02/14 02:23:05;;;;;;;45.30;27.60;;;;;;;-4.18;86.85;98566.63;1784625;80;20865;-63
2022/02/14 02:25:32;;;;;;;39.42;23.27;;;;;;;-4.14;87.00;98568.89;1784555;80;20908;-64
2022/02/14 02:27:59;;;;;;;47.20;25.77;;;;;;;-4.07;87.03;98569.78;1784597;80;20924;-66
2022/02/14 02:30:25;;;;;;;75.08;38.20;;;;;;;-4.02;87.12;98567.39;1784745;80;21550;-67
2022/02/14 02:32:52;;;;;;;71.82;36.93;;;;;;;-3.96;87.19;98571.42;1784533;80;20901;-67
2022/02/14 02:35:19;;;;;;;56.20;29.15;;;;;;;-3.89;87.10;98562.33;1784598;79;20920;-66
2022/02/14 02:37:45;;;;;;;35.00;20.48;;;;;;;-3.87;87.06;98555.91;1784565;80;21417;-65
2022/02/14 02:40:13;;;;;;;27.35;16.32;;;;;;;-3.87;86.97;98553.78;1784583;80;20905;-62
2022/02/14 02:42:39;;;;;;;27.45;14.43;;;;;;;-3.89;86.89;98557.91;1784636;80;21117;-65
2022/02/14 02:45:07;;;;;;;25.20;15.20;;;;;;;-3.91;86.91;98560.39;1784506;80;20905;-61
2022/02/14 02:47:34;;;;;;;20.68;14.47;;;;;;;-3.93;87.06;98554.54;1784478;80;21342;-65
2022/02/14 02:50:01;;;;;;;20.70;14.60;;;;;;;-3.95;87.14;98549.96;1784825;80;20913;-65
2022/02/14 02:52:28;;;;;;;26.20;15.05;;;;;;;-3.93;87.30;98548.00;1784707;80;21381;-65
2022/02/14 02:54:56;;;;;;;23.20;14.47;;;;;;;-3.90;87.40;98544.98;1784750;80;21082;-60
2022/02/14 02:57:24;;;;;;;23.20;13.78;;;;;;;-3.85;87.48;98546.55;1784473;80;20945;-60
2022/02/14 02:59:53;;;;;;;32.65;18.57;;;;;;;-3.80;87.51;98542.89;1784429;80;20992;-66
2022/02/14 03:02:20;;;;;;;41.45;21.37;;;;;;;-3.75;87.29;98544.45;1784484;80;21460;-65
2022/02/14 03:04:47;;;;;;;42.05;24.07;;;;;;;-3.81;86.59;98546.48;1784649;80;21449;-66
2022/02/14 03:07:14;;;;;;;36.60;20.82;;;;;;;-3.94;86.32;98545.87;1784564;80;21117;-61
2022/02/14 03:09:40;;;;;;;31.77;18.17;;;;;;;-4.06;86.16;98547.83;1784381;80;20873;-66
2022/02/14 03:12:09;;;;;;;37.50;21.07;;;;;;;-4.14;86.30;98545.34;1784639;80;20825;-61
2022/02/14 03:14:39;;;;;;;48.35;26.45;;;;;;;-4.18;86.56;98539.65;1784539;80;21449;-64
2022/02/14 03:17:05;;;;;;;53.17;28.52;;;;;;;-4.13;86.82;98536.48;1784336;80;20924;-61
2022/02/14 03:19:31;;;;;;;63.30;32.13;;;;;;;-4.05;86.95;98536.38;1784624;80;21117;-62
2022/02/14 03:21:59;;;;;;;91.75;41.75;;;;;;;-3.96;87.04;98545.74;1787284;80;20953;-63
2022/02/14 03:24:26;;;;;;;112.28;49.93;;;;;;;-3.88;87.04;98550.84;1787648;80;20916;-64
2022/02/14 03:26:53;;;;;;;147.32;69.03;;;;;;;-3.83;87.17;98551.92;1787579;80;20984;-62
2022/02/14 03:29:19;;;;;;;145.47;64.80;;;;;;;-3.77;87.02;98547.77;1787613;79;20925;-62
2022/02/14 03:31:46;;;;;;;84.13;42.50;;;;;;;-3.75;86.94;98543.14;1787517;80;21096;-60
2022/02/14 03:34:13;;;;;;;51.35;24.95;;;;;;;-3.76;86.83;98537.59;1787821;80;20932;-61
2022/02/14 03:36:41;;;;;;;39.88;21.40;;;;;;;-3.76;86.80;98546.75;1787687;80;21352;-66
2022/02/14 03:39:08;;;;;;;27.50;17.20;;;;;;;-3.79;86.70;98544.52;1787788;80;21377;-61
2022/02/14 03:41:34;;;;;;;28.83;17.02;;;;;;;-3.80;86.73;98537.66;1787774;80;20869;-64
2022/02/14 03:44:01;;;;;;;38.65;22.10;;;;;;;-3.81;86.83;98538.64;1787773;80;21068;-66
2022/02/14 03:46:27;;;;;;;36.83;21.93;;;;;;;-3.80;86.78;98537.66;1763557;80;20948;-66
2022/02/14 03:48:54;;;;;;;35.35;21.30;;;;;;;-3.80;86.76;98536.34;1787881;79;20861;-64
2022/02/14 03:51:20;;;;;;;25.92;15.43;;;;;;;-3.80;86.80;98532.42;1787566;80;20960;-64
2022/02/14 03:53:47;;;;;;;20.62;14.38;;;;;;;-3.76;86.86;98537.09;1787894;80;20912;-62
2022/02/14 03:56:13;;;;;;;20.37;14.38;;;;;;;-3.73;86.86;98534.11;1787593;80;21722;-60
2022/02/14 03:58:41;;;;;;;24.25;16.32;;;;;;;-3.74;86.72;98531.17;1787525;80;20949;-65
2022/02/14 04:01:07;;;;;;;24.65;16.50;;;;;;;-3.76;86.57;98529.73;1787557;80;20873;-66
2022/02/14 04:03:34;;;;;;;31.02;18.20;;;;;;;-3.81;86.54;98522.93;1787542;80;20948;-65
2022/02/14 04:06:00;;;;;;;45.67;22.77;;;;;;;-3.80;86.65;98528.48;1787595;80;20951;-67
2022/02/14 04:08:27;;;;;;;38.42;22.05;;;;;;;-3.78;86.79;98526.49;1787504;80;21130;-65
2022/02/14 04:10:57;;;;;;;40.70;21.95;;;;;;;-3.77;86.77;98522.89;1787679;80;20841;-66
2022/02/14 04:13:23;;;;;;;34.15;19.55;;;;;;;-3.77;86.65;98520.27;1787913;80;20944;-66
2022/02/14 04:15:49;;;;;;;29.60;18.52;;;;;;;-3.79;86.62;98514.42;1788101;80;21510;-66
2022/02/14 04:18:23;;;;;;;35.03;19.55;;;;;;;-3.81;86.58;98517.69;1787761;80;20900;-64
2022/02/14 04:20:51;;;;;;;34.10;18.82;;;;;;;-3.83;86.56;98514.45;1786379;79;21475;-67
2022/02/14 04:23:18;;;;;;;27.75;17.80;;;;;;;-3.83;86.59;98512.66;1782661;80;20901;-64
2022/02/14 04:25:45;;;;;;;29.85;18.55;;;;;;;-3.83;86.52;98509.22;1782822;80;20866;-66
2022/02/14 04:28:12;;;;;;;31.77;18.10;;;;;;;-3.87;86.46;98514.03;1782728;80;21036;-66
2022/02/14 04:30:39;;;;;;;30.02;19.30;;;;;;;-3.92;86.47;98516.39;1782648;80;20881;-67
2022/02/14 04:33:06;;;;;;;70.80;41.28;;;;;;;-3.95;86.50;98511.52;1782844;80;21114;-62
2022/02/14 04:35:33;;;;;;;42.58;24.63;;;;;;;-3.94;86.56;98517.58;1782642;80;20917;-61
2022/02/14 04:38:00;;;;;;;46.77;23.38;;;;;;;-3.94;86.56;98513.16;1782622;80;21019;-67
2022/02/14 04:40:31;;;;;;;47.17;24.45;;;;;;;-3.94;86.55;98522.81;1782893;80;21402;-66
2022/02/14 04:42:59;;;;;;;41.65;22.85;;;;;;;-3.98;86.57;98518.42;1782640;80;20845;-67
2022/02/14 04:45:25;;;;;;;37.67;21.52;;;;;;;-3.99;86.51;98517.31;1782993;80;21717;-62
2022/02/14 04:47:52;;;;;;;35.10;19.17;;;;;;;-4.03;86.46;98517.38;1782674;80;20877;-64
2022/02/14 04:50:19;;;;;;;32.98;20.68;;;;;;;-4.06;86.57;98517.74;1782743;80;20897;-67
2022/02/14 04:52:45;;;;;;;33.55;18.48;;;;;;;-4.09;86.46;98520.23;1782586;80;20932;-67
2022/02/14 04:55:12;;;;;;;29.15;17.60;;;;;;;-4.12;86.51;98514.57;1783037;80;20929;-66
2022/02/14 04:57:39;;;;;;;29.02;18.25;;;;;;;-4.14;86.55;98517.34;1782632;80;21122;-66
2022/02/14 05:00:08;;;;;;;32.55;20.02;;;;;;;-4.20;86.66;98518.09;1782655;79;20869;-66
2022/02/14 05:02:36;;;;;;;28.23;17.62;;;;;;;-4.28;86.73;98522.94;1782565;80;20846;-66
2022/02/14 05:05:04;;;;;;;26.55;16.25;;;;;;;-4.31;86.87;98524.59;1782692;80;20960;-68
2022/02/14 05:07:34;;;;;;;39.05;23.90;;;;;;;-4.33;86.97;98525.77;1782696;80;20928;-64
2022/02/14 05:10:01;;;;;;;40.03;24.85;;;;;;;-4.40;87.06;98523.08;1782704;80;21112;-66
2022/02/14 05:12:28;;;;;;;79.30;40.80;;;;;;;-4.42;87.12;98523.77;1782650;80;20954;-67
2022/02/14 05:14:55;;;;;;;76.80;44.27;;;;;;;-4.45;87.17;98522.81;1782705;80;20877;-61
2022/02/14 05:17:22;;;;;;;70.83;37.55;;;;;;;-4.48;87.25;98520.59;1782565;80;20920;-66
2022/02/14 05:19:50;;;;;;;50.78;28.70;;;;;;;-4.50;87.43;98527.78;1782588;80;21405;-66
2022/02/14 05:22:17;;;;;;;58.35;37.17;;;;;;;-4.50;87.52;98529.60;1782725;80;21735;-61
2022/02/14 05:24:44;;;;;;;57.70;32.33;;;;;;;-4.48;87.56;98531.05;1782628;80;20858;-62
2022/02/14 05:27:12;;;;;;;42.50;22.90;;;;;;;-4.47;87.57;98537.87;1782894;80;21558;-61
2022/02/14 05:29:38;;;;;;;39.33;20.97;;;;;;;-4.48;87.58;98541.50;1782680;80;20850;-63
2022/02/14 05:32:07;;;;;;;41.77;22.13;;;;;;;-4.48;87.62;98536.77;1782989;80;20885;-63
2022/02/14 05:34:35;;;;;;;45.00;24.07;;;;;;;-4.46;87.58;98538.70;1782587;80;22135;-61
2022/02/14 05:37:03;;;;;;;46.75;26.40;;;;;;;-4.46;87.50;98543.92;1782721;80;21335;-61
2022/02/14 05:39:30;;;;;;;55.60;28.87;;;;;;;-4.48;87.44;98546.73;1782777;79;21523;-66
2022/02/14 05:41:56;;;;;;;84.07;37.28;;;;;;;-4.49;87.45;98549.02;1782816;80;20954;-66
2022/02/14 05:44:23;;;;;;;66.55;31.90;;;;;;;-4.50;87.46;98546.08;1782691;80;20969;-64
2022/02/14 05:46:50;;;;;;;63.70;32.80;;;;;;;-4.50;87.52;98553.92;1782559;80;21045;-61
2022/02/14 05:49:17;;;;;;;82.53;39.18;;;;;;;-4.49;87.54;98548.20;1782807;80;21404;-62
2022/02/14 05:51:43;;;;;;;97.53;50.80;;;;;;;-4.48;87.55;98548.53;1782684;80;20968;-61
2022/02/14 05:54:10;;;;;;;114.97;56.68;;;;;;;-4.45;87.56;98559.42;1782625;80;20956;-64
2022/02/14 05:56:36;;;;;;;123.97;60.23;;;;;;;-4.43;87.53;98550.90;1782781;79;21460;-65
2022/02/14 05:59:03;;;;;;;99.95;52.33;;;;;;;-4.40;87.51;98549.23;1782674;80;21112;-66
2022/02/14 06:01:31;;;;;;;111.97;54.23;;;;;;;-4.36;87.50;98551.80;1782543;80;20913;-62
2022/02/14 06:03:58;;;;;;;112.15;56.53;;;;;;;-4.30;87.55;98549.77;1782792;80;21377;-66
2022/02/14 06:06:25;;;;;;;81.15;42.25;;;;;;;-4.25;87.53;98552.66;1782639;80;20957;-62
2022/02/14 06:08:51;;;;;;;81.72;39.63;;;;;;;-4.20;87.45;98555.54;1782680;79;20924;-65
2022/02/14 06:11:19;;;;;;;63.05;30.35;;;;;;;-4.17;87.43;98555.16;1782534;80;21059;-62
2022/02/14 06:13:46;;;;;;;113.75;59.75;;;;;;;-4.14;87.41;98555.80;1782550;80;20896;-66
2022/02/14 06:16:13;;;;;;;94.52;48.58;;;;;;;-4.11;87.38;98555.42;1782752;80;21411;-64
2022/02/14 06:18:40;;;;;;;86.30;44.85;;;;;;;-4.04;87.40;98558.92;1782580;80;21008;-68
2022/02/14 06:21:07;;;;;;;72.90;36.17;;;;;;;-4.01;87.28;98558.07;1782422;80;20869;-62
2022/02/14 06:23:34;;;;;;;81.95;40.43;;;;;;;-3.97;87.24;98561.11;1782564;80;21743;-64
2022/02/14 06:26:02;;;;;;;107.47;48.78;;;;;;;-3.93;87.18;98557.16;1782748;80;21503;-61
2022/02/14 06:28:29;;;;;;;146.98;69.42;;;;;;;-3.86;87.14;98555.42;1782582;80;20945;-65
2022/02/14 06:30:56;;;;;;;149.55;69.62;;;;;;;-3.78;87.04;98567.06;1782593;80;20881;-62
2022/02/14 06:33:23;;;;;;;163.28;72.62;;;;;;;-3.71;86.96;98566.64;1782654;80;21010;-67
2022/02/14 06:35:52;;;;;;;194.40;83.25;;;;;;;-3.63;86.82;98562.08;1782481;80;21512;-64
2022/02/14 06:38:19;;;;;;;164.37;79.50;;;;;;;-3.55;86.73;98567.70;1782573;79;20893;-65
2022/02/14 06:40:47;;;;;;;170.43;75.52;;;;;;;-3.47;86.70;98557.12;1782500;79;20892;-64
2022/02/14 06:43:15;;;;;;;157.95;70.25;;;;;;;-3.36;86.56;98559.22;1782446;80;21286;-64
2022/02/14 06:45:42;;;;;;;148.60;62.90;;;;;;;-3.23;86.42;98564.59;1782637;80;20956;-63
2022/02/14 06:48:09;;;;;;;57.73;30.17;;;;;;;-3.12;86.30;98560.64;1782791;80;21171;-63
2022/02/14 06:50:36;;;;;;;45.48;29.02;;;;;;;-3.03;85.98;98568.66;1782555;80;20866;-61
2022/02/14 06:53:02;;;;;;;38.08;22.55;;;;;;;-2.97;85.77;98557.44;1782605;80;20953;-61
2022/02/14 06:55:29;;;;;;;59.30;31.50;;;;;;;-2.90;85.45;98554.36;1782688;80;21413;-63
2022/02/14 06:57:56;;;;;;;67.45;37.83;;;;;;;-2.87;85.30;98561.33;1782613;80;20853;-61
2022/02/14 07:00:22;;;;;;;72.85;39.27;;;;;;;-2.77;85.39;98565.75;1782487;80;21044;-62
2022/02/14 07:02:49;;;;;;;49.70;28.83;;;;;;;-2.61;85.16;98554.63;1782506;80;20981;-63
2022/02/14 07:05:17;;;;;;;151.78;71.82;;;;;;;-2.48;84.95;98551.60;1782754;80;21378;-66
2022/02/14 07:07:44;;;;;;;119.72;72.92;;;;;;;-2.36;84.78;98555.30;1782685;80;21402;-62
2022/02/14 07:10:13;;;;;;;100.62;56.68;;;;;;;-2.25;84.58;98555.23;1782584;80;20960;-62
2022/02/14 07:12:44;;;;;;;73.02;37.93;;;;;;;-2.11;84.44;98559.05;1782636;80;39117;-66
2022/02/14 07:15:11;;;;;;;88.62;42.80;;;;;;;-1.99;84.08;98550.09;1782426;80;21532;-67
2022/02/14 07:17:41;;;;;;;75.70;40.33;;;;;;;-1.91;83.60;98553.87;1763768;80;20881;-65
2022/02/14 07:20:09;;;;;;;121.77;66.75;;;;;;;-1.85;83.43;98555.70;1756497;80;20900;-66
2022/02/14 07:22:37;;;;;;;156.55;87.75;;;;;;;-1.81;83.12;98549.03;1765631;80;20885;-61
2022/02/14 07:25:05;;;;;;;120.45;55.33;;;;;;;-1.72;82.97;98552.30;1778333;80;21135;-63
2022/02/14 07:27:35;;;;;;;106.37;44.60;;;;;;;-1.62;82.81;98543.52;1769645;80;20945;-63
2022/02/14 07:30:09;;;;;;;112.32;43.58;;;;;;;-1.48;82.54;98549.91;1773986;79;20970;-64
2022/02/14 07:32:38;;;;;;;74.42;34.33;;;;;;;-1.34;82.36;98549.95;1773867;81;21383;-63
2022/02/14 07:35:09;;;;;;;84.47;37.40;;;;;;;-1.19;82.18;98536.09;1773547;80;21376;-64
2022/02/14 07:37:43;;;;;;;70.62;33.18;;;;;;;-1.03;81.90;98531.73;1800622;79;21079;-64
2022/02/14 07:40:16;;;;;;;91.78;40.95;;;;;;;-0.88;81.47;98538.41;1747582;81;20975;-63
2022/02/14 07:42:43;;;;;;;70.45;32.67;;;;;;;-0.75;80.99;98533.12;1695766;84;21017;-63
2022/02/14 07:45:10;;;;;;;72.25;33.40;;;;;;;-0.60;80.75;98531.58;1712118;81;20961;-66
2022/02/14 07:47:37;;;;;;;55.73;30.60;;;;;;;-0.50;80.20;98531.97;1695612;84;21401;-66
2022/02/14 07:50:12;;;;;;;52.60;30.05;;;;;;;-0.44;79.78;98529.81;1697528;83;21204;-61
2022/02/14 07:52:36;;;;;;;50.73;28.77;;;;;;;-0.35;79.56;98532.52;1711374;83;20859;-66
2022/02/14 07:55:04;;;;;;;47.43;27.35;;;;;;;-0.26;79.28;98532.58;1724234;81;20902;-61
2022/02/14 07:57:31;;;;;;;47.90;25.97;;;;;;;-0.17;78.88;98533.99;1717889;83;20953;-63
2022/02/14 07:59:59;;;;;;;46.83;26.82;;;;;;;-0.06;78.53;98539.91;1708065;83;20925;-63
2022/02/14 08:02:26;;;;;;;50.95;25.45;;;;;;;0.04;78.18;98536.84;1710264;82;21047;-65
2022/02/14 08:04:52;;;;;;;46.55;27.55;;;;;;;0.14;77.88;98531.93;1697114;83;21020;-60
2022/02/14 08:07:19;;;;;;;45.80;26.95;;;;;;;0.24;77.52;98533.58;1711722;83;20994;-64
2022/02/14 08:09:47;;;;;;;45.83;23.98;;;;;;;0.35;77.17;98529.48;1702844;83;20910;-65
2022/02/14 08:12:14;;;;;;;42.98;24.75;;;;;;;0.45;76.68;98528.48;1701880;81;21005;-64
2022/02/14 08:14:42;;;;;;;34.27;20.97;;;;;;;0.49;76.32;98528.38;1695603;84;21888;-63
2022/02/14 08:17:09;;;;;;;27.75;17.92;;;;;;;0.55;75.68;98519.60;1695536;83;20898;-62
2022/02/14 08:19:35;;;;;;;35.17;21.52;;;;;;;0.62;74.72;98518.54;1703266;83;21454;-65
2022/02/14 08:22:03;;;;;;;33.25;19.60;;;;;;;0.65;74.64;98519.94;1701527;83;21008;-64
2022/02/14 08:24:30;;;;;;;41.45;22.50;;;;;;;0.70;74.60;98516.16;1694398;84;21032;-65
2022/02/14 08:26:57;;;;;;;41.60;23.32;;;;;;;0.81;74.56;98519.41;1694592;84;21128;-63
2022/02/14 08:29:26;;;;;;;39.03;21.23;;;;;;;0.93;74.32;98513.73;1700415;83;20946;-66
2022/02/14 08:31:53;;;;;;;26.45;17.32;;;;;;;1.04;74.24;98516.98;1694491;84;21446;-66
2022/02/14 08:34:19;;;;;;;26.75;18.20;;;;;;;1.14;73.72;98514.66;1708437;83;20910;-63
2022/02/14 08:36:48;;;;;;;27.40;18.17;;;;;;;1.23;73.39;98511.22;1721184;83;20862;-62
2022/02/14 08:39:15;;;;;;;26.23;17.17;;;;;;;1.30;73.06;98508.81;1702868;83;21107;-65
2022/02/14 08:41:42;;;;;;;24.80;17.23;;;;;;;1.38;72.73;98504.59;1694527;84;20953;-68
2022/02/14 08:44:09;;;;;;;21.55;15.08;;;;;;;1.48;72.41;98509.36;1699074;83;20985;-63
2022/02/14 08:46:39;;;;;;;27.25;16.97;;;;;;;1.55;71.71;98502.17;1753441;81;20863;-67
2022/02/14 08:49:05;;;;;;;25.15;15.63;;;;;;;1.58;70.76;98500.93;1732342;81;20894;-64
2022/02/14 08:51:32;;;;;;;27.32;16.12;;;;;;;1.60;70.59;98503.61;1711786;82;21121;-63
2022/02/14 08:53:59;;;;;;;25.60;17.73;;;;;;;1.65;70.50;98497.70;1723730;83;20914;-63
2022/02/14 08:56:26;;;;;;;26.07;16.77;;;;;;;1.69;70.28;98499.67;1723562;83;20942;-65
2022/02/14 08:58:55;;;;;;;32.50;18.52;;;;;;;1.75;70.07;98504.06;1723915;82;20902;-64
2022/02/14 09:01:26;;;;;;;29.50;16.95;;;;;;;1.81;69.90;98495.78;1711071;82;20922;-63
2022/02/14 09:03:56;;;;;;;29.27;18.12;;;;;;;1.89;69.64;98491.49;1705712;83;21112;-63
2022/02/14 09:06:22;;;;;;;27.90;16.95;;;;;;;1.95;69.35;98493.27;1723185;83;20985;-67
2022/02/14 09:08:49;;;;;;;25.00;16.17;;;;;;;2.04;69.16;98495.88;1723753;83;20910;-63
2022/02/14 09:11:16;;;;;;;25.95;15.75;;;;;;;2.10;68.75;98494.98;1723604;81;21398;-66
2022/02/14 09:13:43;;;;;;;24.45;15.58;;;;;;;2.16;68.57;98488.81;1723619;82;21476;-62
2022/02/14 09:16:09;;;;;;;22.75;17.02;;;;;;;2.23;68.37;98488.20;1723778;82;21093;-68
2022/02/14 09:18:37;;;;;;;25.70;16.52;;;;;;;2.31;68.20;98488.41;1723712;82;20943;-69
2022/02/14 09:21:05;;;;;;;24.45;15.55;;;;;;;2.37;67.88;98483.53;1723545;82;20985;-62
2022/02/14 09:23:33;;;;;;;26.57;15.05;;;;;;;2.43;67.68;98483.42;1723889;83;21053;-63
2022/02/14 09:26:00;;;;;;;23.38;14.58;;;;;;;2.47;67.29;98484.58;1724187;83;21433;-69
2022/02/14 09:28:27;;;;;;;20.68;13.55;;;;;;;2.44;67.24;98481.09;1724262;83;21060;-64
2022/02/14 09:30:54;;;;;;;17.45;14.05;;;;;;;2.44;67.06;98471.83;1724087;82;21517;-64
2022/02/14 09:33:21;;;;;;;23.60;16.05;;;;;;;2.45;67.12;98478.71;1724396;83;20997;-64
2022/02/14 09:35:48;;;;;;;24.87;14.95;;;;;;;2.44;67.13;98475.80;1724169;83;20930;-65
2022/02/14 09:38:14;;;;;;;25.35;17.57;;;;;;;2.50;67.19;98472.23;1724412;82;21445;-63
2022/02/14 09:40:42;;;;;;;26.75;17.23;;;;;;;2.59;67.21;98471.41;1724069;83;21130;-61
2022/02/14 09:43:11;;;;;;;22.02;15.25;;;;;;;2.67;67.14;98474.52;1724017;82;20910;-66
2022/02/14 09:45:38;;;;;;;24.12;15.90;;;;;;;2.75;66.72;98474.20;1741786;81;21449;-63
2022/02/14 09:48:07;;;;;;;19.70;14.15;;;;;;;2.81;66.55;98472.97;1754069;81;20914;-63
2022/02/14 09:50:36;;;;;;;22.58;15.75;;;;;;;2.86;66.22;98467.29;1706759;81;21072;-62
2022/02/14 09:53:04;;;;;;;23.77;15.38;;;;;;;2.90;66.16;98459.72;1706462;83;21146;-61
2022/02/14 09:55:31;;;;;;;23.25;14.80;;;;;;;2.94;65.77;98458.21;1710945;83;20966;-65
2022/02/14 09:57:58;;;;;;;25.32;14.80;;;;;;;2.96;65.23;98453.48;1723874;83;20973;-64
2022/02/14 10:00:25;;;;;;;19.75;13.10;;;;;;;2.95;65.25;98451.86;1724102;83;20977;-63
2022/02/14 10:03:14;;;;;;;18.50;13.30;;;;;;;2.94;64.67;98447.63;1723496;83;21025;-69
2022/02/14 10:05:47;;;;;;;20.40;13.40;;;;;;;2.88;64.43;98446.69;1718622;82;21036;-64
2022/02/14 10:08:27;;;;;;;17.62;12.90;;;;;;;2.85;64.42;98451.66;1723460;82;21013;-63
2022/02/14 10:11:13;;;;;;;20.92;13.83;;;;;;;2.85;64.41;98451.66;1715171;82;20985;-62
2022/02/14 10:13:41;;;;;;;23.35;13.55;;;;;;;2.87;64.39;98450.39;1711499;83;21443;-64
2022/02/14 10:16:13;;;;;;;22.13;13.80;;;;;;;2.91;64.11;98447.56;1693764;84;21111;-62
2022/02/14 10:18:42;;;;;;;18.87;12.73;;;;;;;2.97;63.93;98441.88;1711488;83;21109;-60
2022/02/14 10:21:26;;;;;;;14.53;11.70;;;;;;;2.99;63.76;98444.55;1700381;83;20961;-63
2022/02/14 10:24:10;;;;;;;12.85;9.90;;;;;;;3.03;63.27;98434.33;1715651;83;21511;-62
2022/02/14 10:26:41;;;;;;;15.43;10.18;;;;;;;3.05;63.08;98438.87;1699089;83;21595;-71
2022/02/14 10:29:27;;;;;;;16.97;12.35;;;;;;;3.05;62.86;98437.03;1693681;84;21105;-60
2022/02/14 10:31:56;;;;;;;16.40;12.15;;;;;;;3.09;62.72;98436.04;1693816;84;21183;-66
2022/02/14 10:34:41;;;;;;;14.47;10.43;;;;;;;3.16;63.07;98424.81;1693417;84;21032;-71
2022/02/14 10:37:11;;;;;;;21.77;13.90;;;;;;;3.26;62.82;98430.33;1693596;84;21591;-67
2022/02/14 10:39:39;;;;;;;19.52;13.00;;;;;;;3.34;62.61;98419.39;1693185;84;21028;-70
2022/02/14 10:42:19;;;;;;;20.10;13.80;;;;;;;3.37;62.53;98423.69;1693092;83;21072;-68
2022/02/14 10:47:44;;;;;;;17.35;12.05;;;;;;;3.48;62.41;98419.42;1709169;81;21024;-68
2022/02/14 10:50:19;;;;;;;20.70;11.28;;;;;;;3.52;62.22;98421.88;1707250;83;21642;-64
2022/02/14 10:52:49;;;;;;;21.07;13.30;;;;;;;3.55;62.19;98418.77;1694601;84;21513;-66
2022/02/14 10:55:21;;;;;;;23.87;15.00;;;;;;;3.58;61.78;98420.14;1694739;84;20894;-62
2022/02/14 10:57:49;;;;;;;20.12;13.13;;;;;;;3.56;62.40;98417.71;1694509;84;21144;-69
2022/02/14 11:00:31;;;;;;;17.15;12.25;;;;;;;3.62;62.75;98417.30;1693700;84;21029;-65
2022/02/14 11:03:01;;;;;;;18.07;11.30;;;;;;;3.71;62.40;98412.72;1693849;84;20981;-65
2022/02/14 11:05:28;;;;;;;14.60;10.78;;;;;;;3.79;62.32;98405.70;1693980;84;20964;-67
2022/02/14 11:07:55;;;;;;;14.95;10.55;;;;;;;3.90;61.45;98409.36;1693243;84;21580;-69
2022/02/14 11:10:22;;;;;;;17.10;10.93;;;;;;;3.94;61.10;98411.30;1707389;83;21544;-67
2022/02/14 11:13:01;;;;;;;20.45;13.20;;;;;;;3.98;60.65;98404.47;1719950;83;21520;-64
2022/02/14 11:15:34;;;;;;;14.87;10.70;;;;;;;4.02;61.19;98399.00;1720624;83;21057;-66
2022/02/14 11:18:20;;;;;;;15.45;10.40;;;;;;;4.08;60.14;98403.34;1699732;83;21123;-64
2022/02/14 11:20:49;;;;;;;12.88;9.58;;;;;;;4.02;59.59;98401.66;1722068;83;21469;-60
2022/02/14 11:23:17;;;;;;;13.80;9.45;;;;;;;4.00;59.17;98393.11;1706752;83;21197;-63
2022/02/14 11:26:15;;;;;;;13.80;9.85;;;;;;;4.02;58.43;98387.08;1704990;83;20949;-65
2022/02/14 11:29:22;;;;;;;14.50;10.25;;;;;;;4.02;58.99;98387.59;1722170;83;20934;-61